TimeEDT,TemperatureF,Dew PointF,Humidity,Sea Level PressureIn,VisibilityMPH,Wind Direction,Wind SpeedMPH,Gust SpeedMPH,PrecipitationIn,Events,Conditions,WindDirDegrees,DateUTC
12:15 AM,69.8,66.2,88,30.02,10.0,WSW,5.8,-,N/A,,Scattered Clouds,250,2013-09-01 04:15:00
12:35 AM,69.8,68.0,94,30.02,10.0,South,4.6,-,N/A,,Clear,180,2013-09-01 04:35:00
12:55 AM,68.0,68.0,100,30.01,10.0,SSW,3.5,-,N/A,,Scattered Clouds,210,2013-09-01 04:55:00
1:15 AM,68.0,68.0,100,30.01,10.0,Calm,Calm,-,N/A,,Mostly Cloudy,0,2013-09-01 05:15:00
1:35 AM,68.0,68.0,100,30.01,10.0,Calm,Calm,-,N/A,,Mostly Cloudy,0,2013-09-01 05:35:00
1:55 AM,68.0,68.0,100,30.00,10.0,Calm,Calm,-,N/A,,Overcast,0,2013-09-01 05:55:00
2:15 AM,68.0,68.0,100,29.98,10.0,Calm,Calm,-,N/A,,Scattered Clouds,0,2013-09-01 06:15:00
2:35 AM,68.0,68.0,100,29.98,10.0,Calm,Calm,-,N/A,,Clear,0,2013-09-01 06:35:00
2:55 AM,68.0,68.0,100,30.00,7.0,Calm,Calm,-,N/A,,Clear,0,2013-09-01 06:55:00
3:15 AM,68.0,68.0,100,29.99,7.0,Calm,Calm,-,N/A,,Clear,0,2013-09-01 07:15:00
3:35 AM,68.0,68.0,100,29.99,7.0,Calm,Calm,-,N/A,,Clear,0,2013-09-01 07:35:00
3:55 AM,68.0,68.0,100,29.99,7.0,SE,3.5,-,N/A,,Clear,130,2013-09-01 07:55:00
4:15 AM,68.0,68.0,100,30.00,7.0,Calm,Calm,-,N/A,,Scattered Clouds,0,2013-09-01 08:15:00
4:35 AM,68.0,68.0,100,29.99,10.0,SSE,3.5,-,N/A,,Overcast,150,2013-09-01 08:35:00
4:55 AM,68.0,68.0,100,29.99,10.0,South,4.6,-,N/A,,Overcast,180,2013-09-01 08:55:00
5:15 AM,68.0,68.0,100,29.98,7.0,SW,4.6,-,N/A,,Light Drizzle,230,2013-09-01 09:15:00
5:35 AM,66.2,66.2,100,29.98,7.0,Calm,Calm,-,N/A,,Mostly Cloudy,0,2013-09-01 09:35:00
5:55 AM,66.2,66.2,100,29.97,7.0,SSE,5.8,-,N/A,,Scattered Clouds,150,2013-09-01 09:55:00
6:15 AM,66.2,66.2,100,29.97,5.0,SSE,4.6,-,N/A,,Overcast,160,2013-09-01 10:15:00
6:35 AM,66.2,66.2,100,29.97,5.0,SSE,6.9,-,N/A,,Mostly Cloudy,150,2013-09-01 10:35:00
6:55 AM,66.2,66.2,100,29.97,5.0,SSE,8.1,-,N/A,,Mostly Cloudy,160,2013-09-01 10:55:00
7:15 AM,68.0,68.0,100,29.98,7.0,SSE,8.1,-,N/A,,Overcast,160,2013-09-01 11:15:00
7:35 AM,68.0,68.0,100,29.99,10.0,South,8.1,-,N/A,,Mostly Cloudy,180,2013-09-01 11:35:00
7:55 AM,68.0,68.0,100,30.00,7.0,SSW,3.5,-,N/A,,Mostly Cloudy,210,2013-09-01 11:55:00
8:15 AM,68.0,68.0,100,30.00,7.0,SSW,3.5,-,N/A,,Overcast,210,2013-09-01 12:15:00
8:35 AM,68.0,68.0,100,30.00,7.0,WSW,3.5,-,N/A,,Mostly Cloudy,240,2013-09-01 12:35:00
8:55 AM,68.0,68.0,100,30.00,10.0,SW,3.5,-,N/A,Thunderstorm,Mostly Cloudy,220,2013-09-01 12:55:00
9:15 AM,69.8,69.8,100,29.99,10.0,South,4.6,-,N/A,Thunderstorm,Overcast,190,2013-09-01 13:15:00
9:35 AM,71.6,69.8,94,29.99,10.0,South,3.5,-,N/A,Rain,Light Rain,170,2013-09-01 13:35:00
9:55 AM,68.0,68.0,100,30.00,7.0,South,10.4,-,0.01,Rain,Rain,190,2013-09-01 13:55:00
10:15 AM,68.0,68.0,100,30.01,7.0,SW,5.8,-,0.02,Rain-Thunderstorm,Light Thunderstorms and Rain,220,2013-09-01 14:15:00
10:35 AM,68.0,68.0,100,30.01,7.0,SSW,4.6,-,0.02,Rain,Light Rain,200,2013-09-01 14:35:00
10:55 AM,68.0,68.0,100,30.00,10.0,SSW,5.8,-,0.02,Thunderstorm,Thunderstorm,200,2013-09-01 14:55:00
11:15 AM,68.0,68.0,100,30.01,10.0,South,4.6,-,0.02,,Overcast,170,2013-09-01 15:15:00
11:35 AM,69.8,69.8,100,30.00,10.0,SSE,4.6,-,0.02,,Mostly Cloudy,160,2013-09-01 15:35:00
11:55 AM,69.8,69.8,100,30.00,10.0,SSE,4.6,-,0.02,,Overcast,160,2013-09-01 15:55:00
12:15 PM,69.8,69.8,100,30.00,10.0,South,5.8,-,N/A,,Overcast,170,2013-09-01 16:15:00
12:35 PM,71.6,71.6,100,29.99,10.0,South,5.8,-,N/A,,Overcast,190,2013-09-01 16:35:00
12:55 PM,71.6,71.6,100,29.99,10.0,WSW,8.1,-,N/A,,Overcast,240,2013-09-01 16:55:00
1:15 PM,73.4,73.4,100,29.98,10.0,SW,12.7,-,N/A,,Overcast,220,2013-09-01 17:15:00
1:35 PM,73.4,73.4,100,29.98,10.0,SSW,11.5,-,N/A,,Overcast,210,2013-09-01 17:35:00
1:55 PM,73.4,73.4,100,29.98,10.0,SW,11.5,17.3,N/A,,Overcast,220,2013-09-01 17:55:00
2:15 PM,75.2,71.6,89,29.97,10.0,SW,13.8,19.6,N/A,,Mostly Cloudy,220,2013-09-01 18:15:00
2:35 PM,75.2,68.0,78,29.97,10.0,WSW,15.0,-,N/A,,Overcast,240,2013-09-01 18:35:00
2:55 PM,71.6,68.0,88,29.96,4.0,WSW,6.9,-,0.03,Rain,Heavy Rain,240,2013-09-01 18:55:00
3:15 PM,71.6,71.6,100,29.96,10.0,Calm,Calm,-,N/A,,Mostly Cloudy,0,2013-09-01 19:15:00
3:35 PM,75.2,69.8,83,29.96,10.0,WSW,5.8,-,N/A,,Scattered Clouds,250,2013-09-01 19:35:00
3:55 PM,73.4,69.8,88,29.96,7.0,North,10.4,-,0.01,Rain,Rain,350,2013-09-01 19:55:00
4:15 PM,69.8,69.8,100,29.95,2.0,Calm,Calm,-,0.33,Rain,Rain,0,2013-09-01 20:15:00
4:35 PM,73.4,73.4,100,29.95,10.0,Calm,Calm,-,0.34,,Scattered Clouds,0,2013-09-01 20:35:00
4:55 PM,77.0,69.8,78,29.95,10.0,West,4.6,-,0.34,,Clear,270,2013-09-01 20:55:00
5:15 PM,77.0,71.6,83,29.95,10.0,NW,3.5,-,N/A,,Scattered Clouds,320,2013-09-01 21:15:00
5:35 PM,77.0,69.8,78,29.95,10.0,WNW,6.9,-,N/A,,Scattered Clouds,300,2013-09-01 21:35:00
5:55 PM,77.0,69.8,78,29.96,10.0,West,6.9,-,N/A,,Scattered Clouds,280,2013-09-01 21:55:00
6:15 PM,77.0,69.8,78,29.96,10.0,NW,4.6,-,N/A,,Mostly Cloudy,310,2013-09-01 22:15:00
6:35 PM,73.4,69.8,88,29.96,10.0,Calm,Calm,-,N/A,,Scattered Clouds,0,2013-09-01 22:35:00
6:55 PM,77.0,69.8,78,29.96,10.0,West,3.5,-,N/A,,Clear,280,2013-09-01 22:55:00
7:15 PM,73.4,68.0,83,29.96,10.0,Calm,Calm,-,N/A,,Scattered Clouds,0,2013-09-01 23:15:00
7:35 PM,73.4,69.8,88,29.96,10.0,Calm,Calm,-,N/A,,Scattered Clouds,0,2013-09-01 23:35:00
7:55 PM,71.6,68.0,88,29.96,10.0,Calm,Calm,-,N/A,,Clear,0,2013-09-01 23:55:00
8:15 PM,69.8,69.8,100,29.96,10.0,Calm,Calm,-,N/A,,Clear,0,2013-09-02 00:15:00
8:35 PM,69.8,69.8,100,29.97,10.0,Calm,Calm,-,N/A,,Clear,0,2013-09-02 00:35:00
8:55 PM,69.8,69.8,100,29.97,10.0,Calm,Calm,-,N/A,,Clear,0,2013-09-02 00:55:00
9:15 PM,68.0,68.0,100,29.98,7.0,SSW,3.5,-,N/A,,Clear,200,2013-09-02 01:15:00
9:35 PM,68.0,68.0,100,29.98,7.0,Calm,Calm,-,N/A,,Clear,0,2013-09-02 01:35:00
9:55 PM,68.0,68.0,100,29.98,4.0,Calm,Calm,-,N/A,,Clear,0,2013-09-02 01:55:00
10:15 PM,68.0,68.0,100,29.98,10.0,SSW,4.6,-,N/A,,Clear,200,2013-09-02 02:15:00
10:35 PM,68.0,68.0,100,29.99,10.0,SSW,3.5,-,N/A,,Scattered Clouds,200,2013-09-02 02:35:00
10:55 PM,68.0,68.0,100,29.99,10.0,Calm,Calm,-,N/A,,Scattered Clouds,0,2013-09-02 02:55:00
11:15 PM,68.0,68.0,100,30.00,10.0,Calm,Calm,-,N/A,,Mostly Cloudy,0,2013-09-02 03:15:00
11:35 PM,68.0,68.0,100,30.00,10.0,SSW,3.5,-,N/A,,Scattered Clouds,200,2013-09-02 03:35:00
11:55 PM,68.0,68.0,100,29.99,7.0,Calm,Calm,-,N/A,,Scattered Clouds,0,2013-09-02 03:55:00